Time;durP1;ratioP1;P1;durP2;ratioP2;P2;SDS_P1;SDS_P2;PMS_P1;PMS_P2;Temp;Humidity;BMP_temperature;BMP_pressure;BME280_temperature;BME280_humidity;BME280_pressure;Samples;Min_cycle;Max_cycle;Signal;HPM_P1;HPM_P2
2023/09/10 00:00:22;;;;;;;17.45;15.82;;;19.00;99.90;;;;;;5018323;28;20832;-79
2023/09/10 00:02:48;;;;;;;17.73;16.23;;;18.90;99.90;;;;;;5026255;28;20068;-79
2023/09/10 00:05:13;;;;;;;17.20;15.70;;;18.90;99.90;;;;;;5019009;28;20046;-78
2023/09/10 00:07:39;;;;;;;17.48;15.98;;;18.80;99.90;;;;;;5019548;28;20037;-78
2023/09/10 00:10:05;;;;;;;18.08;16.58;;;18.80;99.90;;;;;;5029943;28;20401;-79
2023/09/10 00:12:31;;;;;;;18.88;17.17;;;18.80;99.90;;;;;;5026408;28;20517;-78
2023/09/10 00:14:57;;;;;;;17.92;16.33;;;18.70;99.90;;;;;;5019032;28;20057;-78
2023/09/10 00:17:22;;;;;;;19.83;18.02;;;18.70;99.90;;;;;;5022049;28;20492;-79
2023/09/10 00:19:48;;;;;;;19.55;17.73;;;18.70;99.90;;;;;;5018836;28;20469;-78
2023/09/10 00:22:14;;;;;;;21.05;19.08;;;18.70;99.90;;;;;;5018355;28;20049;-78
2023/09/10 00:24:40;;;;;;;20.58;18.50;;;18.60;99.90;;;;;;5020338;28;20129;-78
2023/09/10 00:27:05;;;;;;;22.15;20.13;;;18.60;99.90;;;;;;5039341;28;20045;-78
2023/09/10 00:29:31;;;;;;;23.15;21.13;;;18.60;99.90;;;;;;5025205;28;20053;-79
2023/09/10 00:31:56;;;;;;;24.05;21.83;;;18.60;99.90;;;;;;5022418;28;20049;-78
2023/09/10 00:34:22;;;;;;;23.52;21.30;;;18.50;99.90;;;;;;5025035;28;20045;-79
2023/09/10 00:36:48;;;;;;;23.08;20.98;;;18.50;99.90;;;;;;5021809;28;20037;-78
2023/09/10 00:39:14;;;;;;;23.30;21.13;;;18.90;99.90;;;;;;5023125;28;20042;-79
2023/09/10 00:41:39;;;;;;;23.92;21.63;;;18.90;99.90;;;;;;5022499;28;20038;-78
2023/09/10 00:44:05;;;;;;;27.08;24.25;;;18.40;99.90;;;;;;5029545;28;20471;-78
2023/09/10 00:46:31;;;;;;;26.48;23.80;;;18.40;99.90;;;;;;5025962;28;20072;-78
2023/09/10 00:48:59;;;;;;;31.45;28.45;;;18.40;99.90;;;;;;5024763;28;20046;-79
2023/09/10 00:51:26;;;;;;;34.88;31.35;;;18.40;99.90;;;;;;5024413;28;20045;-78
2023/09/10 00:53:52;;;;;;;33.33;30.02;;;18.40;99.90;;;;;;5028652;28;20103;-79
2023/09/10 00:56:20;;;;;;;35.15;31.05;;;18.40;99.90;;;;;;5023839;28;20045;-78
2023/09/10 00:58:46;;;;;;;35.70;32.05;;;18.40;99.90;;;;;;5023045;28;20036;-78
2023/09/10 01:01:12;;;;;;;36.03;32.35;;;18.40;99.90;;;;;;5023633;28;20046;-78
2023/09/10 01:03:40;;;;;;;34.35;30.83;;;18.40;99.90;;;;;;5028551;28;20030;-78
2023/09/10 01:06:06;;;;;;;33.00;29.80;;;18.40;99.90;;;;;;5026932;28;20511;-79
2023/09/10 01:08:32;;;;;;;34.75;31.05;;;18.30;99.90;;;;;;5024240;28;20111;-78
2023/09/10 01:11:03;;;;;;;32.85;29.73;;;18.30;99.90;;;;;;5021905;28;20037;-78
2023/09/10 01:13:49;;;;;;;33.10;29.90;;;18.30;99.90;;;;;;5024487;28;20096;-77
2023/09/10 01:16:21;;;;;;;31.92;28.83;;;18.30;99.90;;;;;;5033375;28;20037;-77
2023/09/10 01:18:48;;;;;;;31.98;28.85;;;18.30;99.90;;;;;;5024584;28;20063;-78
2023/09/10 01:21:14;;;;;;;31.48;28.38;;;18.30;99.90;;;;;;5025700;28;20121;-78
2023/09/10 01:24:13;;;;;;;31.95;28.55;;;18.20;99.90;;;;;;5023273;28;20136;-78
2023/09/10 01:26:40;;;;;;;29.73;26.90;;;18.20;99.90;;;;;;5022737;28;20121;-78
2023/09/10 01:29:14;;;;;;;30.02;26.92;;;18.20;99.90;;;;;;5025022;28;20045;-78
2023/09/10 01:31:44;;;;;;;28.63;25.73;;;18.20;99.90;;;;;;5020621;28;20037;-78
2023/09/10 01:34:13;;;;;;;26.70;24.05;;;18.20;99.90;;;;;;5027241;28;20489;-78
2023/09/10 01:36:42;;;;;;;27.88;24.85;;;18.10;99.90;;;;;;5023525;28;20034;-78
2023/09/10 01:39:18;;;;;;;26.75;24.00;;;18.10;99.90;;;;;;5020903;28;20049;-79
2023/09/10 01:41:49;;;;;;;26.80;24.23;;;17.50;99.90;;;;;;5023635;28;20126;-78
2023/09/10 01:44:17;;;;;;;26.30;23.67;;;18.10;99.90;;;;;;5031125;28;20041;-79
2023/09/10 01:46:44;;;;;;;27.33;24.50;;;18.00;99.90;;;;;;5029082;28;20116;-78
2023/09/10 01:49:09;;;;;;;27.40;24.70;;;18.00;99.90;;;;;;5032258;28;20045;-78
2023/09/10 01:51:35;;;;;;;27.73;25.02;;;18.00;99.90;;;;;;5017001;28;20086;-78
2023/09/10 01:54:01;;;;;;;29.10;26.15;;;18.00;99.90;;;;;;5023657;28;20237;-78
2023/09/10 01:56:26;;;;;;;26.70;24.13;;;18.00;99.90;;;;;;5022779;28;20045;-78
2023/09/10 01:58:52;;;;;;;29.30;26.33;;;18.00;99.90;;;;;;5027009;28;20076;-78
2023/09/10 02:01:18;;;;;;;29.77;26.77;;;19.00;99.90;;;;;;5019628;28;20121;-77
2023/09/10 02:03:43;;;;;;;27.85;24.98;;;17.90;99.90;;;;;;5022799;28;20494;-78
2023/09/10 02:06:09;;;;;;;28.48;25.67;;;17.90;99.90;;;;;;5019070;28;20064;-78
2023/09/10 02:08:34;;;;;;;25.73;23.05;;;17.90;99.90;;;;;;5021036;28;20038;-77
2023/09/10 02:11:04;;;;;;;26.35;23.58;;;17.90;99.90;;;;;;5024378;28;20038;-77
2023/09/10 02:13:30;;;;;;;25.10;22.35;;;17.90;99.90;;;;;;5024411;28;20045;-78
2023/09/10 02:15:56;;;;;;;23.23;20.95;;;17.90;99.90;;;;;;5020098;28;20056;-78
2023/09/10 02:18:22;;;;;;;24.02;21.60;;;17.90;99.90;;;;;;5024581;28;20076;-78
2023/09/10 02:20:48;;;;;;;25.73;23.17;;;17.90;99.90;;;;;;5023210;28;20050;-79
2023/09/10 02:23:13;;;;;;;27.65;24.83;;;18.00;99.90;;;;;;5024271;28;20045;-78
2023/09/10 02:25:39;;;;;;;30.17;27.15;;;18.30;99.90;;;;;;5023555;28;20429;-79
2023/09/10 02:28:05;;;;;;;30.73;27.52;;;17.90;99.90;;;;;;5021429;28;20048;-79
2023/09/10 02:30:31;;;;;;;30.33;27.35;;;17.80;99.90;;;;;;5024143;28;20123;-78
2023/09/10 02:32:56;;;;;;;31.42;28.17;;;18.40;99.90;;;;;;5020697;28;20139;-78
2023/09/10 02:35:23;;;;;;;30.92;27.90;;;17.80;99.90;;;;;;5019912;28;20093;-78
2023/09/10 02:37:48;;;;;;;29.95;27.05;;;17.80;99.90;;;;;;5022118;28;20050;-78
2023/09/10 02:40:14;;;;;;;32.08;28.95;;;17.80;99.90;;;;;;5022991;28;20069;-78
2023/09/10 02:42:40;;;;;;;31.63;28.52;;;17.80;99.90;;;;;;5022754;28;20432;-78
2023/09/10 02:45:06;;;;;;;33.40;30.13;;;17.80;99.90;;;;;;5026464;28;20045;-77
2023/09/10 02:47:32;;;;;;;33.47;30.10;;;17.80;99.90;;;;;;5025008;28;20061;-77
2023/09/10 02:49:57;;;;;;;34.58;31.17;;;17.80;99.90;;;;;;5023621;28;20053;-78
2023/09/10 02:52:24;;;;;;;33.97;30.60;;;17.80;99.90;;;;;;5023987;28;20056;-79
2023/09/10 02:54:51;;;;;;;35.95;30.63;;;17.80;99.90;;;;;;5019891;28;20121;-78
2023/09/10 02:57:16;;;;;;;34.00;30.60;;;17.70;99.90;;;;;;5029914;28;20081;-78
2023/09/10 02:59:42;;;;;;;33.58;30.42;;;17.70;99.90;;;;;;5029156;28;20083;-77
2023/09/10 03:02:10;;;;;;;34.92;31.50;;;17.70;99.90;;;;;;5029504;28;20037;-77
2023/09/10 03:04:36;;;;;;;34.70;31.20;;;17.70;99.90;;;;;;5020567;28;20072;-78
2023/09/10 03:07:01;;;;;;;34.25;30.95;;;17.70;99.90;;;;;;5023952;28;20485;-78
2023/09/10 03:09:27;;;;;;;33.42;30.23;;;17.70;99.90;;;;;;4986581;28;20072;-78
2023/09/10 03:11:57;;;;;;;35.85;32.25;;;17.70;99.90;;;;;;5021735;28;20443;-79
2023/09/10 03:14:23;;;;;;;35.80;32.35;;;17.70;99.90;;;;;;5018536;28;20500;-78
2023/09/10 03:16:48;;;;;;;36.83;33.13;;;17.60;99.90;;;;;;5020471;28;20124;-78
2023/09/10 03:19:14;;;;;;;35.25;31.65;;;17.60;99.90;;;;;;5021610;28;20397;-78
2023/09/10 03:21:40;;;;;;;33.67;30.27;;;17.60;99.90;;;;;;5025426;28;20045;-78
2023/09/10 03:24:06;;;;;;;35.40;31.88;;;17.60;99.90;;;;;;5027907;28;20052;-78
2023/09/10 03:26:31;;;;;;;33.33;30.02;;;17.60;99.90;;;;;;5022604;28;20046;-78
2023/09/10 03:28:57;;;;;;;35.10;31.63;;;17.60;99.90;;;;;;5020203;28;20041;-78
2023/09/10 03:31:23;;;;;;;34.22;30.98;;;17.50;99.90;;;;;;5026262;28;20053;-78
2023/09/10 03:33:48;;;;;;;31.80;28.63;;;17.50;99.90;;;;;;5027502;28;20409;-78
2023/09/10 03:36:14;;;;;;;32.03;28.92;;;17.80;99.90;;;;;;5028388;28;20061;-77
2023/09/10 03:38:40;;;;;;;32.63;29.40;;;17.90;99.90;;;;;;5021094;28;20038;-77
2023/09/10 03:41:05;;;;;;;34.53;30.40;;;17.70;99.90;;;;;;5021976;28;20045;-78
2023/09/10 03:43:31;;;;;;;33.85;30.17;;;17.50;99.90;;;;;;5028838;28;20041;-77
2023/09/10 03:45:57;;;;;;;33.17;29.67;;;17.50;99.90;;;;;;5026412;28;20049;-78
2023/09/10 03:48:22;;;;;;;31.92;28.92;;;17.40;99.90;;;;;;5019766;28;20060;-78
2023/09/10 03:50:49;;;;;;;31.42;28.33;;;17.40;99.90;;;;;;5026038;28;20065;-78
2023/09/10 03:53:14;;;;;;;31.70;28.52;;;17.50;99.90;;;;;;5020051;28;20127;-78
2023/09/10 03:55:41;;;;;;;32.42;29.25;;;17.40;99.90;;;;;;5024898;28;20076;-78
2023/09/10 03:58:06;;;;;;;32.08;28.88;;;17.40;99.90;;;;;;5005163;28;20049;-78
2023/09/10 04:00:33;;;;;;;31.08;27.95;;;17.40;99.90;;;;;;5027212;28;20103;-77
2023/09/10 04:02:59;;;;;;;36.42;32.65;;;17.40;99.90;;;;;;5045725;28;20077;-77
2023/09/10 04:05:26;;;;;;;33.17;29.77;;;17.70;99.90;;;;;;5021528;28;20080;-78
2023/09/10 04:07:51;;;;;;;32.97;29.83;;;17.90;99.90;;;;;;5020372;28;20096;-79
2023/09/10 04:10:17;;;;;;;34.42;30.80;;;17.30;99.90;;;;;;5027661;28;20077;-79
2023/09/10 04:12:43;;;;;;;33.47;30.08;;;17.30;99.90;;;;;;5026520;28;20067;-79
2023/09/10 04:15:09;;;;;;;34.03;30.42;;;17.30;99.90;;;;;;5028855;28;20044;-78
2023/09/10 04:17:35;;;;;;;32.38;29.10;;;17.30;99.90;;;;;;5008959;28;20038;-79
2023/09/10 04:20:00;;;;;;;32.30;29.20;;;17.30;99.90;;;;;;5024820;28;20042;-79
2023/09/10 04:22:27;;;;;;;33.78;30.38;;;17.30;99.90;;;;;;5027073;28;20037;-77
2023/09/10 04:24:52;;;;;;;36.85;33.08;;;17.30;99.90;;;;;;5031043;28;20056;-78
2023/09/10 04:27:18;;;;;;;33.40;29.85;;;17.30;99.90;;;;;;5028111;28;20045;-78
2023/09/10 04:29:44;;;;;;;33.22;29.95;;;17.30;99.90;;;;;;5025896;28;20049;-77
2023/09/10 04:32:09;;;;;;;33.15;29.88;;;17.20;99.90;;;;;;5022808;28;20034;-77
2023/09/10 04:34:35;;;;;;;34.40;30.83;;;17.20;99.90;;;;;;5020422;28;20050;-77
2023/09/10 04:37:04;;;;;;;33.00;29.70;;;17.20;99.90;;;;;;5024361;28;20050;-77
2023/09/10 04:39:30;;;;;;;32.00;28.98;;;17.20;99.90;;;;;;5028921;28;20038;-78
2023/09/10 04:41:55;;;;;;;30.77;27.65;;;17.20;99.90;;;;;;5007187;28;20052;-77
2023/09/10 04:44:21;;;;;;;30.00;26.90;;;17.20;99.90;;;;;;5021149;28;20056;-78
2023/09/10 04:46:47;;;;;;;31.88;28.80;;;17.50;99.90;;;;;;5028922;28;20098;-77
2023/09/10 04:49:13;;;;;;;32.30;28.90;;;17.10;99.90;;;;;;5028443;28;20557;-78
2023/09/10 04:51:38;;;;;;;31.48;28.30;;;17.10;99.90;;;;;;5028829;28;20394;-78
2023/09/10 04:54:04;;;;;;;30.63;27.60;;;17.10;99.90;;;;;;5030577;28;20052;-78
2023/09/10 04:56:30;;;;;;;32.28;29.13;;;17.00;99.90;;;;;;5027791;28;20506;-78
2023/09/10 04:58:55;;;;;;;32.78;29.48;;;17.00;99.90;;;;;;5025273;28;20516;-78
2023/09/10 05:01:21;;;;;;;31.05;28.15;;;17.00;99.90;;;;;;5022337;28;20048;-77
2023/09/10 05:03:47;;;;;;;31.52;28.42;;;17.00;99.90;;;;;;5025647;28;20048;-78
2023/09/10 05:06:13;;;;;;;30.10;27.20;;;17.00;99.90;;;;;;4995595;28;20424;-79
2023/09/10 05:08:39;;;;;;;29.95;26.85;;;17.00;99.90;;;;;;5028910;28;20088;-77
2023/09/10 05:11:04;;;;;;;31.40;28.20;;;17.00;99.90;;;;;;5024435;28;20119;-78
2023/09/10 05:13:30;;;;;;;31.17;28.17;;;17.00;99.90;;;;;;5028632;28;20041;-77
2023/09/10 05:15:57;;;;;;;30.73;27.73;;;16.90;99.90;;;;;;5024565;28;20049;-78
2023/09/10 05:18:26;;;;;;;32.58;29.27;;;17.10;99.90;;;;;;5023124;28;20045;-78
2023/09/10 05:20:53;;;;;;;31.70;28.40;;;16.90;99.90;;;;;;5021760;28;20037;-78
2023/09/10 05:23:23;;;;;;;30.67;27.65;;;16.90;99.90;;;;;;5027282;28;20409;-78
2023/09/10 05:25:49;;;;;;;30.58;27.50;;;16.90;99.90;;;;;;5021117;28;20121;-78
2023/09/10 05:28:16;;;;;;;30.00;27.05;;;16.90;99.90;;;;;;5026885;28;20044;-78
2023/09/10 05:30:41;;;;;;;30.45;27.45;;;16.90;99.90;;;;;;5029351;28;20057;-79
2023/09/10 05:33:07;;;;;;;31.17;28.00;;;16.90;99.90;;;;;;5024421;28;20045;-78
2023/09/10 05:35:33;;;;;;;30.48;27.25;;;16.90;99.90;;;;;;5031737;28;20385;-78
2023/09/10 05:37:58;;;;;;;31.27;27.98;;;16.90;99.90;;;;;;5021466;28;20410;-79
2023/09/10 05:40:25;;;;;;;31.00;28.10;;;17.50;99.90;;;;;;5030674;28;20478;-78
2023/09/10 05:42:51;;;;;;;31.17;27.95;;;17.80;99.90;;;;;;5028557;28;20375;-78
2023/09/10 05:45:17;;;;;;;32.45;29.25;;;17.00;99.90;;;;;;5031131;28;20127;-78
2023/09/10 05:47:43;;;;;;;33.88;30.40;;;17.00;99.90;;;;;;5029251;28;20048;-78
2023/09/10 05:50:09;;;;;;;33.15;29.75;;;17.00;99.90;;;;;;5027320;28;20053;-78
2023/09/10 05:52:35;;;;;;;31.80;28.65;;;16.90;99.90;;;;;;5020941;28;20049;-78
2023/09/10 05:55:01;;;;;;;33.00;29.25;;;16.90;99.90;;;;;;5023556;28;20057;-79
2023/09/10 05:57:26;;;;;;;32.70;29.42;;;17.00;99.90;;;;;;5023435;28;20039;-79
2023/09/10 05:59:52;;;;;;;32.25;28.90;;;16.90;99.90;;;;;;5025657;28;20132;-78
2023/09/10 06:02:18;;;;;;;31.17;27.95;;;16.90;99.90;;;;;;5022547;28;20054;-78
2023/09/10 06:04:43;;;;;;;31.52;28.42;;;17.00;99.90;;;;;;5023183;28;20057;-77
2023/09/10 06:07:09;;;;;;;33.38;30.05;;;17.00;99.90;;;;;;5004690;28;20401;-78
2023/09/10 06:09:34;;;;;;;34.42;30.92;;;17.00;99.90;;;;;;5023406;28;20038;-79
2023/09/10 06:12:03;;;;;;;36.95;32.80;;;17.00;99.90;;;;;;5021183;28;20547;-78
2023/09/10 06:14:30;;;;;;;35.72;32.03;;;17.00;99.90;;;;;;5022277;28;20497;-79
2023/09/10 06:16:59;;;;;;;34.97;31.42;;;17.00;99.90;;;;;;5024307;28;20042;-78
2023/09/10 06:19:24;;;;;;;34.85;31.25;;;17.00;99.90;;;;;;5021202;28;20631;-77
2023/09/10 06:21:50;;;;;;;37.95;34.03;;;17.10;99.90;;;;;;5022883;28;20307;-79
2023/09/10 06:24:15;;;;;;;33.63;30.33;;;18.00;99.90;;;;;;5024457;28;20054;-78
2023/09/10 06:26:42;;;;;;;36.50;32.95;;;17.20;99.90;;;;;;5022662;28;20383;-78
2023/09/10 06:29:07;;;;;;;36.47;32.75;;;17.20;99.90;;;;;;5021102;28;20050;-78
2023/09/10 06:31:33;;;;;;;37.08;32.97;;;17.30;99.90;;;;;;5023606;28;20038;-78
2023/09/10 06:33:59;;;;;;;31.48;28.27;;;17.30;99.90;;;;;;5025982;28;20390;-78
2023/09/10 06:36:25;;;;;;;33.40;29.35;;;17.40;99.90;;;;;;5016114;28;20037;-79
2023/09/10 06:38:51;;;;;;;39.90;35.58;;;17.40;99.90;;;;;;5026906;28;20049;-78
2023/09/10 06:41:17;;;;;;;34.55;30.30;;;17.50;99.90;;;;;;5022495;28;20037;-78
2023/09/10 06:43:44;;;;;;;35.20;31.60;;;17.50;99.90;;;;;;5021461;28;20046;-80
2023/09/10 06:46:10;;;;;;;35.00;31.48;;;17.50;99.90;;;;;;5021437;28;20042;-79
2023/09/10 06:48:35;;;;;;;39.17;35.08;;;17.60;99.90;;;;;;5022047;28;20397;-80
2023/09/10 06:51:02;;;;;;;37.95;34.08;;;17.60;99.90;;;;;;5023597;28;20053;-79
2023/09/10 06:53:28;;;;;;;38.90;34.90;;;17.70;99.90;;;;;;5020286;28;20045;-79
2023/09/10 06:55:54;;;;;;;48.40;42.75;;;17.80;99.90;;;;;;5024644;28;20055;-79
2023/09/10 06:58:20;;;;;;;48.97;42.10;;;17.90;99.90;;;;;;5023238;28;20448;-79
2023/09/10 07:00:46;;;;;;;42.42;37.90;;;17.90;99.90;;;;;;5018588;28;20592;-79
2023/09/10 07:03:13;;;;;;;42.72;38.22;;;17.90;99.90;;;;;;5027199;28;20075;-79
2023/09/10 07:05:42;;;;;;;42.08;37.53;;;18.00;99.90;;;;;;5021507;28;20030;-80
2023/09/10 07:08:11;;;;;;;40.38;36.08;;;18.60;99.90;;;;;;5020296;28;20046;-78
2023/09/10 07:10:37;;;;;;;41.53;37.30;;;18.10;99.90;;;;;;5023210;28;20085;-78
2023/09/10 07:13:07;;;;;;;44.55;40.15;;;18.40;99.90;;;;;;5015765;28;20030;-78
2023/09/10 07:15:33;;;;;;;42.80;38.45;;;18.20;99.90;;;;;;5021919;28;20038;-77
2023/09/10 07:17:59;;;;;;;47.47;42.38;;;18.30;99.90;;;;;;5027135;28;20087;-78
2023/09/10 07:20:25;;;;;;;47.67;42.67;;;18.30;99.90;;;;;;5002839;28;20046;-78
2023/09/10 07:22:50;;;;;;;42.35;37.97;;;18.40;99.90;;;;;;5025599;28;20045;-78
2023/09/10 07:25:16;;;;;;;40.13;35.95;;;18.40;99.90;;;;;;5021867;28;20045;-83
2023/09/10 07:27:41;;;;;;;39.88;35.78;;;18.50;99.90;;;;;;5026430;28;20517;-85
2023/09/10 07:30:07;;;;;;;38.30;34.13;;;18.60;99.90;;;;;;5023176;28;20045;-86
2023/09/10 07:32:33;;;;;;;40.15;36.05;;;18.60;99.90;;;;;;5025808;28;20045;-83
2023/09/10 07:34:59;;;;;;;37.72;33.83;;;18.70;99.90;;;;;;5023732;28;20049;-86
2023/09/10 07:37:25;;;;;;;37.67;33.78;;;18.40;99.90;;;;;;5025511;28;20383;-86
2023/09/10 07:39:50;;;;;;;36.78;32.75;;;18.80;99.90;;;;;;5028730;28;20060;-85
2023/09/10 07:42:16;;;;;;;34.47;31.13;;;18.90;99.90;;;;;;5025444;28;20029;-85
2023/09/10 07:44:42;;;;;;;33.88;30.60;;;19.00;99.90;;;;;;5021720;28;20053;-89
2023/09/10 07:47:10;;;;;;;33.65;30.38;;;19.00;99.90;;;;;;5021238;28;20457;-83
2023/09/10 07:49:36;;;;;;;33.70;30.05;;;19.00;99.90;;;;;;5018724;28;20052;-82
2023/09/10 07:52:04;;;;;;;34.33;31.13;;;19.10;99.90;;;;;;5020267;28;20042;-83
2023/09/10 07:54:30;;;;;;;34.70;31.23;;;19.20;99.90;;;;;;4676178;28;9999987;-83
2023/09/10 07:56:56;;;;;;;33.70;30.20;;;19.20;99.90;;;;;;5009452;28;20045;-88
2023/09/10 07:59:22;;;;;;;33.17;29.98;;;19.30;99.90;;;;;;5018946;28;20132;-83
2023/09/10 08:01:48;;;;;;;31.75;28.65;;;19.40;99.90;;;;;;5018260;28;20038;-84
2023/09/10 08:04:15;;;;;;;32.03;28.80;;;19.50;99.90;;;;;;5020321;28;20038;-85
2023/09/10 08:06:41;;;;;;;32.38;29.17;;;19.50;99.90;;;;;;5021047;28;20417;-84
2023/09/10 08:09:07;;;;;;;32.75;29.55;;;19.60;99.90;;;;;;5020586;28;20045;-86
2023/09/10 08:11:33;;;;;;;29.50;26.40;;;19.60;99.90;;;;;;5023441;28;20097;-84
2023/09/10 08:13:59;;;;;;;31.00;27.85;;;19.70;99.90;;;;;;5027521;28;20045;-83
2023/09/10 08:16:25;;;;;;;29.27;26.23;;;19.80;99.90;;;;;;5024544;28;20052;-83
2023/09/10 08:18:50;;;;;;;28.45;25.63;;;19.90;99.90;;;;;;5018438;28;20108;-83
2023/09/10 08:21:16;;;;;;;28.02;25.42;;;20.00;99.90;;;;;;5023649;28;20555;-84
2023/09/10 08:23:42;;;;;;;29.08;26.13;;;20.00;99.90;;;;;;5017084;28;20150;-83
2023/09/10 08:26:08;;;;;;;26.90;24.27;;;20.10;99.90;;;;;;5021149;28;20468;-84
2023/09/10 08:28:34;;;;;;;28.63;25.92;;;20.20;99.90;;;;;;5021636;28;20056;-84
2023/09/10 08:31:00;;;;;;;28.27;25.25;;;20.30;99.90;;;;;;5021348;28;20037;-83
2023/09/10 08:33:29;;;;;;;27.20;24.67;;;20.30;99.90;;;;;;5024818;28;20045;-90
2023/09/10 08:35:57;;;;;;;27.00;24.40;;;20.40;99.90;;;;;;5016657;28;20398;-85
2023/09/10 08:38:23;;;;;;;24.50;22.13;;;20.50;99.90;;;;;;5017887;28;20042;-86
2023/09/10 08:41:14;;;;;;;23.80;21.52;;;20.50;99.90;;;;;;5018272;28;20484;-85
2023/09/10 08:43:53;;;;;;;23.63;21.20;;;20.60;99.90;;;;;;5021249;28;20493;-86
2023/09/10 08:46:22;;;;;;;21.40;19.23;;;20.70;99.90;;;;;;5020999;28;20071;-84
2023/09/10 08:48:51;;;;;;;22.20;19.92;;;20.80;99.90;;;;;;5022944;28;20060;-84
2023/09/10 08:51:18;;;;;;;20.67;18.77;;;20.90;99.90;;;;;;5019341;28;20042;-84
2023/09/10 08:53:46;;;;;;;18.17;16.55;;;21.00;99.90;;;;;;5024499;28;20466;-85
2023/09/10 08:56:12;;;;;;;18.65;16.85;;;21.10;99.90;;;;;;5024088;28;20124;-85
2023/09/10 08:58:39;;;;;;;18.17;16.33;;;20.90;99.90;;;;;;5023490;28;20144;-84
2023/09/10 09:01:08;;;;;;;18.73;14.43;;;21.30;99.90;;;;;;5029869;28;20045;-84
2023/09/10 09:03:34;;;;;;;17.23;14.48;;;21.30;99.90;;;;;;5021046;28;20045;-86
2023/09/10 09:06:04;;;;;;;14.68;13.18;;;21.30;99.90;;;;;;5020346;28;20038;-84
2023/09/10 09:08:35;;;;;;;16.05;14.02;;;21.40;99.90;;;;;;5028745;28;20073;-87
2023/09/10 09:11:08;;;;;;;15.25;13.70;;;21.50;99.90;;;;;;5023611;28;20068;-86
2023/09/10 09:13:36;;;;;;;;;;;21.60;99.90;;;;;;5027958;28;20486;-82
2023/09/10 09:16:03;;;;;;;15.63;14.15;;;21.70;99.90;;;;;;5024548;28;19922;-82
2023/09/10 09:18:30;;;;;;;14.32;12.88;;;21.80;99.90;;;;;;5019330;28;20050;-82
2023/09/10 09:21:01;;;;;;;15.00;13.68;;;21.90;99.90;;;;;;5024430;28;20064;-82
2023/09/10 09:23:34;;;;;;;22.05;13.60;;;22.00;99.90;;;;;;5022509;28;20125;-82
2023/09/10 09:26:01;;;;;;;15.40;11.93;;;22.10;99.90;;;;;;5021401;28;20084;-80
2023/09/10 09:28:29;;;;;;;13.65;11.98;;;22.20;99.90;;;;;;5022286;28;20312;-80
2023/09/10 09:30:54;;;;;;;12.50;11.30;;;22.30;99.90;;;;;;5022289;28;20072;-85
2023/09/10 09:33:20;;;;;;;13.13;11.73;;;22.30;99.90;;;;;;5024491;28;20069;-80
2023/09/10 09:35:46;;;;;;;13.05;11.77;;;22.40;99.90;;;;;;5027221;28;20049;-79
2023/09/10 09:38:16;;;;;;;12.15;10.90;;;22.50;99.90;;;;;;5022567;28;20034;-78
2023/09/10 09:40:43;;;;;;;13.43;12.05;;;22.50;99.90;;;;;;5020211;28;20060;-79
2023/09/10 09:43:11;;;;;;;13.32;11.73;;;22.60;99.90;;;;;;5019601;28;20129;-79
2023/09/10 09:45:38;;;;;;;12.80;11.38;;;22.60;99.90;;;;;;5026921;28;20037;-84
2023/09/10 09:48:04;;;;;;;13.43;11.82;;;22.70;99.90;;;;;;5021916;28;20038;-84
2023/09/10 09:50:30;;;;;;;11.88;10.55;;;22.70;99.90;;;;;;5021620;28;20085;-84
2023/09/10 09:52:56;;;;;;;14.18;10.95;;;22.90;99.90;;;;;;5020694;28;20418;-84
2023/09/10 09:55:22;;;;;;;12.10;10.85;;;22.90;99.90;;;;;;5021641;28;20129;-83
2023/09/10 09:57:49;;;;;;;12.23;10.50;;;23.10;99.90;;;;;;5026221;28;20041;-80
2023/09/10 10:00:15;;;;;;;12.23;10.57;;;23.20;99.90;;;;;;5022557;28;20457;-80
2023/09/10 10:02:42;;;;;;;11.65;9.73;;;23.20;99.90;;;;;;5020905;28;20058;-78
2023/09/10 10:05:08;;;;;;;16.83;9.63;;;23.30;99.90;;;;;;5020184;28;20045;-78
2023/09/10 10:07:36;;;;;;;16.63;9.25;;;23.40;99.90;;;;;;5021649;28;20069;-79
2023/09/10 10:10:05;;;;;;;11.48;8.40;;;23.40;99.90;;;;;;5021419;28;20771;-79
2023/09/10 10:12:32;;;;;;;10.27;8.75;;;23.40;99.90;;;;;;5017031;28;20038;-78
2023/09/10 10:14:59;;;;;;;10.63;8.30;;;23.40;99.90;;;;;;5027877;28;20053;-79
2023/09/10 10:17:26;;;;;;;15.55;8.43;;;23.50;99.90;;;;;;5018489;28;20049;-80
2023/09/10 10:19:52;;;;;;;11.18;8.77;;;23.60;99.90;;;;;;5022335;28;20042;-78
2023/09/10 10:22:19;;;;;;;9.77;8.57;;;23.70;99.90;;;;;;5022439;28;20132;-77
2023/09/10 10:24:45;;;;;;;10.45;8.45;;;23.70;99.90;;;;;;5022750;28;20485;-79
2023/09/10 10:27:13;;;;;;;10.07;8.27;;;23.80;99.90;;;;;;5026033;28;20041;-80
2023/09/10 10:29:40;;;;;;;9.63;8.18;;;23.80;99.90;;;;;;5024204;28;20099;-80
2023/09/10 10:32:37;;;;;;;9.52;7.80;;;23.90;99.90;;;;;;5019352;28;20427;-80
2023/09/10 10:35:05;;;;;;;11.73;8.63;;;24.10;99.90;;;;;;5015884;28;20116;-80
2023/09/10 10:37:33;;;;;;;14.45;7.78;;;24.10;99.90;;;;;;5000892;28;20034;-80
2023/09/10 10:40:12;;;;;;;14.45;8.65;;;24.10;99.90;;;;;;5019165;28;20700;-81
2023/09/10 10:42:52;;;;;;;10.57;7.57;;;24.20;99.90;;;;;;5023702;28;20041;-81
2023/09/10 10:45:18;;;;;;;8.82;7.72;;;24.30;99.90;;;;;;5024501;28;20155;-84
2023/09/10 10:47:46;;;;;;;11.27;7.18;;;24.30;99.90;;;;;;5025063;28;20140;-86
2023/09/10 10:50:15;;;;;;;9.40;8.32;;;24.40;99.90;;;;;;5025558;28;20057;-85
2023/09/10 10:52:55;;;;;;;10.73;8.48;;;24.50;99.90;;;;;;5019010;28;20068;-89
2023/09/10 10:55:23;;;;;;;11.15;7.80;;;24.60;99.90;;;;;;5032537;28;20072;-79
2023/09/10 10:57:49;;;;;;;11.05;8.00;;;24.70;99.90;;;;;;5017934;28;20442;-83
2023/09/10 11:00:15;;;;;;;9.38;7.78;;;24.80;99.90;;;;;;5037720;28;20069;-83
2023/09/10 11:02:41;;;;;;;9.70;8.30;;;24.90;99.90;;;;;;5026836;28;20087;-85
2023/09/10 11:05:07;;;;;;;9.68;7.47;;;24.90;99.90;;;;;;5022901;28;20460;-86
2023/09/10 11:07:33;;;;;;;11.98;7.30;;;25.00;99.90;;;;;;5018439;28;20564;-87
2023/09/10 11:10:27;;;;;;;11.98;7.60;;;25.00;99.90;;;;;;5020795;28;20042;-83
2023/09/10 11:13:10;;;;;;;11.60;7.80;;;25.10;99.90;;;;;;5021322;28;20049;-83
2023/09/10 11:15:36;;;;;;;12.18;7.93;;;25.20;99.90;;;;;;5018309;28;20037;-87
2023/09/10 11:18:36;;;;;;;12.23;6.22;;;25.30;99.90;;;;;;5019756;28;20104;-82
2023/09/10 11:21:06;;;;;;;10.07;7.47;;;25.40;99.90;;;;;;5010651;28;20058;-85
2023/09/10 11:23:40;;;;;;;17.95;7.82;;;25.50;99.90;;;;;;5018712;28;20084;-87
2023/09/10 11:26:14;;;;;;;14.38;6.95;;;25.60;99.90;;;;;;5018678;28;20184;-85
2023/09/10 11:28:45;;;;;;;15.70;8.75;;;25.70;99.90;;;;;;5018803;28;20049;-85
2023/09/10 11:31:47;;;;;;;13.85;8.18;;;25.80;99.90;;;;;;5023189;28;20041;-85
2023/09/10 11:34:20;;;;;;;10.63;6.63;;;25.90;99.90;;;;;;4963835;28;20082;-83
2023/09/10 11:36:46;;;;;;;12.88;6.47;;;25.90;99.90;;;;;;5014018;28;20057;-85
2023/09/10 11:39:14;;;;;;;12.60;7.10;;;25.90;99.90;;;;;;5018594;28;20417;-86
2023/09/10 11:41:44;;;;;;;13.50;6.50;;;26.00;99.90;;;;;;5019860;28;20106;-82
2023/09/10 11:44:10;;;;;;;15.05;7.25;;;26.20;99.90;;;;;;5020205;28;20430;-85
2023/09/10 11:46:37;;;;;;;10.52;7.68;;;26.30;99.90;;;;;;5023043;28;20030;-83
2023/09/10 11:49:03;;;;;;;18.35;11.02;;;26.40;99.90;;;;;;5019466;28;20054;-82
2023/09/10 11:51:29;;;;;;;14.93;7.28;;;26.50;99.90;;;;;;5017995;28;20030;-86
2023/09/10 11:53:56;;;;;;;10.38;7.20;;;26.50;99.90;;;;;;5019108;28;20056;-82
2023/09/10 11:56:22;;;;;;;10.38;7.35;;;26.60;99.90;;;;;;5022018;28;20550;-86
2023/09/10 11:58:48;;;;;;;13.63;6.90;;;26.70;99.90;;;;;;5024703;28;20037;-83
2023/09/10 12:01:14;;;;;;;13.88;7.25;;;26.80;99.90;;;;;;5020348;28;20126;-85
2023/09/10 12:03:44;;;;;;;14.20;6.97;;;26.80;99.90;;;;;;5020481;28;20038;-85
2023/09/10 12:06:11;;;;;;;17.38;8.20;;;26.90;99.90;;;;;;5020680;28;20049;-86
2023/09/10 12:08:37;;;;;;;14.20;7.25;;;27.00;99.90;;;;;;5019962;28;20046;-86
2023/09/10 12:11:08;;;;;;;15.82;6.80;;;27.00;99.90;;;;;;5022566;28;20501;-87
2023/09/10 12:13:35;;;;;;;18.15;7.32;;;27.10;99.90;;;;;;5023528;28;20108;-85
2023/09/10 12:16:04;;;;;;;12.30;6.38;;;27.10;99.90;;;;;;5021120;28;20050;-86
2023/09/10 12:18:31;;;;;;;10.55;6.95;;;27.20;99.90;;;;;;5028154;28;20037;-86
2023/09/10 12:21:00;;;;;;;15.65;7.32;;;27.30;99.90;;;;;;5021671;28;20049;-85
2023/09/10 12:23:26;;;;;;;12.00;7.55;;;27.30;99.90;;;;;;5019251;28;20049;-84
2023/09/10 12:26:02;;;;;;;12.15;7.20;;;27.40;99.90;;;;;;5018656;28;20046;-85
2023/09/10 12:28:31;;;;;;;15.52;7.00;;;27.40;99.90;;;;;;5029747;28;20167;-82